sensor_id;sensor_type;location;lat;lon;timestamp;pressure;altitude;pressure_sealevel;temperature;humidity
19114;BME280;9689;51.052;13.772;2023-11-22T00:02:27;100963.88;;;0.72;95.10
19114;BME280;9689;51.052;13.772;2023-11-22T00:07:30;100963.09;;;0.75;94.28
19114;BME280;9689;51.052;13.772;2023-11-22T00:12:31;100959.69;;;0.76;94.50
19114;BME280;9689;51.052;13.772;2023-11-22T00:17:37;100975.84;;;0.72;94.55
19114;BME280;9689;51.052;13.772;2023-11-22T00:22:39;100973.69;;;0.59;93.67
19114;BME280;9689;51.052;13.772;2023-11-22T00:27:41;100970.28;;;0.58;94.00
19114;BME280;9689;51.052;13.772;2023-11-22T00:32:42;100969.59;;;0.64;94.12
19114;BME280;9689;51.052;13.772;2023-11-22T00:37:44;100980.72;;;0.64;94.26
19114;BME280;9689;51.052;13.772;2023-11-22T00:42:45;100983.63;;;0.48;94.49
19114;BME280;9689;51.052;13.772;2023-11-22T00:47:46;100991.84;;;0.38;93.47
19114;BME280;9689;51.052;13.772;2023-11-22T00:52:49;100999.84;;;0.47;92.96
19114;BME280;9689;51.052;13.772;2023-11-22T00:57:49;101007.81;;;0.56;92.26
19114;BME280;9689;51.052;13.772;2023-11-22T01:02:50;101000.84;;;0.52;91.98
19114;BME280;9689;51.052;13.772;2023-11-22T01:07:53;101015.22;;;0.47;90.90
19114;BME280;9689;51.052;13.772;2023-11-22T01:12:54;101028.97;;;0.49;90.72
19114;BME280;9689;51.052;13.772;2023-11-22T01:17:55;101030.03;;;0.55;90.95
19114;BME280;9689;51.052;13.772;2023-11-22T01:22:58;101043.09;;;0.63;90.75
19114;BME280;9689;51.052;13.772;2023-11-22T01:27:59;101064.03;;;0.50;91.48
19114;BME280;9689;51.052;13.772;2023-11-22T01:33:00;101059.50;;;0.68;90.41
19114;BME280;9689;51.052;13.772;2023-11-22T01:38:02;101060.88;;;0.32;91.31
19114;BME280;9689;51.052;13.772;2023-11-22T01:43:04;101074.97;;;0.44;91.52
19114;BME280;9689;51.052;13.772;2023-11-22T01:48:05;101075.47;;;0.60;90.62
19114;BME280;9689;51.052;13.772;2023-11-22T01:53:09;101078.97;;;0.62;90.04
19114;BME280;9689;51.052;13.772;2023-11-22T01:58:12;101079.59;;;0.54;90.02
19114;BME280;9689;51.052;13.772;2023-11-22T02:03:13;101075.53;;;0.61;89.42
19114;BME280;9689;51.052;13.772;2023-11-22T02:08:16;101068.63;;;0.60;89.81
19114;BME280;9689;51.052;13.772;2023-11-22T02:13:17;101074.53;;;0.57;89.73
19114;BME280;9689;51.052;13.772;2023-11-22T02:18:18;101068.59;;;0.33;90.68
19114;BME280;9689;51.052;13.772;2023-11-22T02:23:20;101069.72;;;0.41;90.12
19114;BME280;9689;51.052;13.772;2023-11-22T02:28:22;101093.94;;;0.49;89.99
19114;BME280;9689;51.052;13.772;2023-11-22T02:33:23;101104.53;;;0.35;89.23
19114;BME280;9689;51.052;13.772;2023-11-22T02:38:26;101100.88;;;0.26;90.04
19114;BME280;9689;51.052;13.772;2023-11-22T02:43:27;101108.03;;;0.37;90.22
19114;BME280;9689;51.052;13.772;2023-11-22T02:48:29;101118.31;;;0.37;89.71
19114;BME280;9689;51.052;13.772;2023-11-22T02:53:31;101121.88;;;0.42;88.83
19114;BME280;9689;51.052;13.772;2023-11-22T02:58:32;101116.66;;;0.39;87.86
19114;BME280;9689;51.052;13.772;2023-11-22T03:03:33;101129.47;;;0.64;88.17
19114;BME280;9689;51.052;13.772;2023-11-22T03:08:35;101119.94;;;0.60;87.54
19114;BME280;9689;51.052;13.772;2023-11-22T03:13:36;101115.94;;;0.68;87.61
19114;BME280;9689;51.052;13.772;2023-11-22T03:18:37;101127.72;;;0.89;88.30
19114;BME280;9689;51.052;13.772;2023-11-22T03:23:40;101144.56;;;0.80;87.47
19114;BME280;9689;51.052;13.772;2023-11-22T03:28:41;101154.47;;;0.70;85.99
19114;BME280;9689;51.052;13.772;2023-11-22T03:33:41;101160.03;;;0.58;87.68
19114;BME280;9689;51.052;13.772;2023-11-22T03:38:44;101161.34;;;0.71;86.67
19114;BME280;9689;51.052;13.772;2023-11-22T03:43:45;101185.25;;;0.70;86.79
19114;BME280;9689;51.052;13.772;2023-11-22T03:48:46;101195.94;;;0.58;86.87
19114;BME280;9689;51.052;13.772;2023-11-22T03:53:48;101202.78;;;0.57;86.62
19114;BME280;9689;51.052;13.772;2023-11-22T03:58:49;101202.94;;;0.38;86.59
19114;BME280;9689;51.052;13.772;2023-11-22T04:03:50;101222.69;;;0.41;87.65
19114;BME280;9689;51.052;13.772;2023-11-22T04:08:52;101230.34;;;0.39;87.47
19114;BME280;9689;51.052;13.772;2023-11-22T04:13:53;101231.19;;;0.40;87.94
19114;BME280;9689;51.052;13.772;2023-11-22T04:18:54;101248.28;;;0.39;88.02
19114;BME280;9689;51.052;13.772;2023-11-22T04:23:57;101251.34;;;0.29;88.13
19114;BME280;9689;51.052;13.772;2023-11-22T04:28:58;101261.53;;;0.27;87.58
19114;BME280;9689;51.052;13.772;2023-11-22T04:33:59;101282.25;;;0.34;88.18
19114;BME280;9689;51.052;13.772;2023-11-22T04:39:01;101280.28;;;0.26;88.23
19114;BME280;9689;51.052;13.772;2023-11-22T04:44:03;101299.00;;;0.02;88.71
19114;BME280;9689;51.052;13.772;2023-11-22T04:49:04;101295.91;;;0.10;88.10
19114;BME280;9689;51.052;13.772;2023-11-22T04:54:08;101309.88;;;-0.04;88.98
19114;BME280;9689;51.052;13.772;2023-11-22T04:59:09;101300.59;;;-0.01;88.18
19114;BME280;9689;51.052;13.772;2023-11-22T05:04:10;101305.75;;;0.22;88.78
19114;BME280;9689;51.052;13.772;2023-11-22T05:09:12;101318.66;;;0.03;86.81
19114;BME280;9689;51.052;13.772;2023-11-22T05:14:13;101325.06;;;0.14;85.23
19114;BME280;9689;51.052;13.772;2023-11-22T05:19:14;101334.91;;;0.25;85.32
19114;BME280;9689;51.052;13.772;2023-11-22T05:24:16;101343.91;;;0.37;84.91
19114;BME280;9689;51.052;13.772;2023-11-22T05:29:17;101331.53;;;0.04;85.67
19114;BME280;9689;51.052;13.772;2023-11-22T05:34:18;101338.88;;;0.17;86.37
19114;BME280;9689;51.052;13.772;2023-11-22T05:39:20;101336.78;;;0.30;85.89
19114;BME280;9689;51.052;13.772;2023-11-22T05:44:22;101334.03;;;0.25;85.79
19114;BME280;9689;51.052;13.772;2023-11-22T05:49:25;101336.19;;;0.14;86.09
19114;BME280;9689;51.052;13.772;2023-11-22T05:54:27;101351.56;;;0.14;86.36
19114;BME280;9689;51.052;13.772;2023-11-22T05:59:29;101350.03;;;0.18;85.72
19114;BME280;9689;51.052;13.772;2023-11-22T06:04:30;101344.50;;;0.30;85.93
19114;BME280;9689;51.052;13.772;2023-11-22T06:09:33;101360.97;;;0.14;85.71
19114;BME280;9689;51.052;13.772;2023-11-22T06:14:34;101368.66;;;0.14;86.30
19114;BME280;9689;51.052;13.772;2023-11-22T06:19:34;101372.28;;;0.19;86.49
19114;BME280;9689;51.052;13.772;2023-11-22T06:24:36;101377.78;;;0.07;86.95
19114;BME280;9689;51.052;13.772;2023-11-22T06:29:37;101393.91;;;0.05;86.83
19114;BME280;9689;51.052;13.772;2023-11-22T06:34:38;101400.66;;;0.03;87.01
19114;BME280;9689;51.052;13.772;2023-11-22T06:39:40;101411.84;;;0.05;86.76
19114;BME280;9689;51.052;13.772;2023-11-22T06:44:43;101402.47;;;0.05;86.47
19114;BME280;9689;51.052;13.772;2023-11-22T06:49:47;101421.13;;;0.01;86.54
19114;BME280;9689;51.052;13.772;2023-11-22T06:54:50;101454.09;;;0.14;86.81
19114;BME280;9689;51.052;13.772;2023-11-22T06:59:51;101461.78;;;0.14;86.90
19114;BME280;9689;51.052;13.772;2023-11-22T07:04:51;101460.16;;;-0.05;86.12
19114;BME280;9689;51.052;13.772;2023-11-22T07:09:54;101468.53;;;0.12;87.52
19114;BME280;9689;51.052;13.772;2023-11-22T07:14:58;101448.88;;;0.34;86.48
19114;BME280;9689;51.052;13.772;2023-11-22T07:19:59;101445.59;;;0.36;85.39
19114;BME280;9689;51.052;13.772;2023-11-22T07:25:02;101444.25;;;0.25;85.02
19114;BME280;9689;51.052;13.772;2023-11-22T07:30:03;101437.44;;;0.46;85.05
19114;BME280;9689;51.052;13.772;2023-11-22T07:35:07;101447.84;;;0.51;84.86
19114;BME280;9689;51.052;13.772;2023-11-22T07:40:11;101462.69;;;0.58;84.64
19114;BME280;9689;51.052;13.772;2023-11-22T07:45:13;101475.38;;;0.55;83.94
19114;BME280;9689;51.052;13.772;2023-11-22T07:50:14;101488.53;;;0.42;83.67
19114;BME280;9689;51.052;13.772;2023-11-22T07:55:16;101509.47;;;0.32;83.49
19114;BME280;9689;51.052;13.772;2023-11-22T08:00:18;101506.16;;;0.98;87.75
19114;BME280;9689;51.052;13.772;2023-11-22T08:05:19;101515.84;;;1.29;88.90
19114;BME280;9689;51.052;13.772;2023-11-22T08:10:24;101529.66;;;1.09;85.68
19114;BME280;9689;51.052;13.772;2023-11-22T08:15:25;101540.59;;;1.27;85.93
19114;BME280;9689;51.052;13.772;2023-11-22T08:20:26;101547.63;;;1.31;82.57
19114;BME280;9689;51.052;13.772;2023-11-22T08:25:28;101549.94;;;0.39;80.75
19114;BME280;9689;51.052;13.772;2023-11-22T08:30:30;101542.38;;;0.42;81.73
19114;BME280;9689;51.052;13.772;2023-11-22T08:35:35;101538.81;;;0.38;82.21
19114;BME280;9689;51.052;13.772;2023-11-22T08:40:37;101552.34;;;0.15;83.03
19114;BME280;9689;51.052;13.772;2023-11-22T08:45:38;101553.81;;;0.29;83.59
19114;BME280;9689;51.052;13.772;2023-11-22T08:50:39;101547.00;;;0.30;82.82
19114;BME280;9689;51.052;13.772;2023-11-22T08:55:41;101536.97;;;0.15;84.18
19114;BME280;9689;51.052;13.772;2023-11-22T09:00:43;101536.66;;;0.07;83.16
19114;BME280;9689;51.052;13.772;2023-11-22T09:05:44;101536.22;;;-0.04;84.00
19114;BME280;9689;51.052;13.772;2023-11-22T09:10:48;101543.34;;;0.04;83.86
19114;BME280;9689;51.052;13.772;2023-11-22T09:15:50;101540.38;;;0.14;83.58
19114;BME280;9689;51.052;13.772;2023-11-22T09:20:51;101560.25;;;0.19;82.91
19114;BME280;9689;51.052;13.772;2023-11-22T09:25:53;101566.38;;;0.23;81.63
19114;BME280;9689;51.052;13.772;2023-11-22T09:30:54;101578.44;;;0.25;81.27
19114;BME280;9689;51.052;13.772;2023-11-22T09:36:01;101578.31;;;0.43;81.13
19114;BME280;9689;51.052;13.772;2023-11-22T09:41:10;101565.63;;;0.67;79.74
19114;BME280;9689;51.052;13.772;2023-11-22T09:46:13;101557.63;;;0.80;75.74
19114;BME280;9689;51.052;13.772;2023-11-22T09:51:20;101555.59;;;0.94;73.87
19114;BME280;9689;51.052;13.772;2023-11-22T09:56:26;101552.03;;;0.91;71.66
19114;BME280;9689;51.052;13.772;2023-11-22T10:01:28;101548.97;;;0.99;72.51
19114;BME280;9689;51.052;13.772;2023-11-22T10:06:31;101543.00;;;1.23;69.39
19114;BME280;9689;51.052;13.772;2023-11-22T10:11:35;101550.06;;;1.28;68.57
19114;BME280;9689;51.052;13.772;2023-11-22T10:16:38;101553.97;;;1.41;67.65
19114;BME280;9689;51.052;13.772;2023-11-22T10:21:39;101551.59;;;1.47;67.85
19114;BME280;9689;51.052;13.772;2023-11-22T10:26:42;101552.94;;;1.60;67.71
19114;BME280;9689;51.052;13.772;2023-11-22T10:31:43;101548.41;;;1.53;66.45
19114;BME280;9689;51.052;13.772;2023-11-22T10:36:44;101542.28;;;1.27;67.01
19114;BME280;9689;51.052;13.772;2023-11-22T10:41:47;101527.19;;;1.12;67.60
19114;BME280;9689;51.052;13.772;2023-11-22T10:46:50;101514.38;;;1.36;67.28
19114;BME280;9689;51.052;13.772;2023-11-22T10:51:52;101511.72;;;2.06;65.88
19114;BME280;9689;51.052;13.772;2023-11-22T10:56:57;101536.13;;;1.92;65.00
19114;BME280;9689;51.052;13.772;2023-11-22T11:02:01;101531.91;;;1.70;65.19
19114;BME280;9689;51.052;13.772;2023-11-22T11:07:09;101542.13;;;1.92;65.79
19114;BME280;9689;51.052;13.772;2023-11-22T11:12:13;101570.94;;;1.84;65.45
19114;BME280;9689;51.052;13.772;2023-11-22T11:17:14;101590.75;;;1.64;67.99
19114;BME280;9689;51.052;13.772;2023-11-22T11:22:16;101599.63;;;1.48;67.78
19114;BME280;9689;51.052;13.772;2023-11-22T11:27:20;101592.19;;;1.33;69.30
19114;BME280;9689;51.052;13.772;2023-11-22T11:32:30;101602.25;;;1.50;68.93
19114;BME280;9689;51.052;13.772;2023-11-22T11:37:33;101572.59;;;1.35;68.56
19114;BME280;9689;51.052;13.772;2023-11-22T11:42:35;101576.59;;;1.51;68.57
19114;BME280;9689;51.052;13.772;2023-11-22T11:47:35;101588.38;;;1.46;67.38
19114;BME280;9689;51.052;13.772;2023-11-22T11:52:38;101585.47;;;1.37;66.80
19114;BME280;9689;51.052;13.772;2023-11-22T11:57:41;101594.56;;;1.29;68.07
19114;BME280;9689;51.052;13.772;2023-11-22T12:02:42;101593.91;;;1.33;67.89
19114;BME280;9689;51.052;13.772;2023-11-22T12:07:43;101580.56;;;1.21;68.05
19114;BME280;9689;51.052;13.772;2023-11-22T12:12:45;101588.34;;;1.45;69.07
19114;BME280;9689;51.052;13.772;2023-11-22T12:17:48;101570.41;;;1.46;66.76
19114;BME280;9689;51.052;13.772;2023-11-22T12:22:51;101562.16;;;1.55;66.36
19114;BME280;9689;51.052;13.772;2023-11-22T12:27:54;101549.75;;;1.21;66.37
19114;BME280;9689;51.052;13.772;2023-11-22T12:32:55;101541.13;;;1.19;66.48
19114;BME280;9689;51.052;13.772;2023-11-22T12:37:58;101548.31;;;1.27;66.96
19114;BME280;9689;51.052;13.772;2023-11-22T12:43:01;101528.81;;;1.32;66.97
19114;BME280;9689;51.052;13.772;2023-11-22T12:48:19;101532.88;;;1.50;65.79
19114;BME280;9689;51.052;13.772;2023-11-22T12:53:21;101519.22;;;1.51;65.98
19114;BME280;9689;51.052;13.772;2023-11-22T12:58:24;101519.56;;;1.37;65.77
19114;BME280;9689;51.052;13.772;2023-11-22T13:03:26;101518.06;;;1.42;65.76
19114;BME280;9689;51.052;13.772;2023-11-22T13:08:27;101514.16;;;1.30;66.68
19114;BME280;9689;51.052;13.772;2023-11-22T13:13:31;101523.16;;;1.41;67.98
19114;BME280;9689;51.052;13.772;2023-11-22T13:18:34;101518.69;;;1.37;67.72
19114;BME280;9689;51.052;13.772;2023-11-22T13:23:36;101509.94;;;1.30;66.92
19114;BME280;9689;51.052;13.772;2023-11-22T13:28:39;101509.16;;;1.33;64.83
19114;BME280;9689;51.052;13.772;2023-11-22T13:33:40;101527.00;;;1.30;65.14
19114;BME280;9689;51.052;13.772;2023-11-22T13:38:43;101530.88;;;1.19;66.01
19114;BME280;9689;51.052;13.772;2023-11-22T13:43:45;101525.25;;;1.29;66.06
19114;BME280;9689;51.052;13.772;2023-11-22T13:48:48;101547.81;;;1.37;65.09
19114;BME280;9689;51.052;13.772;2023-11-22T13:53:49;101556.38;;;1.14;64.25
19114;BME280;9689;51.052;13.772;2023-11-22T13:58:54;101548.97;;;1.22;64.84
19114;BME280;9689;51.052;13.772;2023-11-22T14:03:55;101539.00;;;0.86;65.50
19114;BME280;9689;51.052;13.772;2023-11-22T14:08:56;101560.34;;;0.85;65.81
19114;BME280;9689;51.052;13.772;2023-11-22T14:13:58;101561.59;;;0.95;65.80
19114;BME280;9689;51.052;13.772;2023-11-22T14:19:01;101559.91;;;0.95;64.81
19114;BME280;9689;51.052;13.772;2023-11-22T14:24:02;101533.38;;;0.95;65.43
19114;BME280;9689;51.052;13.772;2023-11-22T14:29:05;101528.06;;;0.90;65.67
19114;BME280;9689;51.052;13.772;2023-11-22T14:34:06;101521.25;;;0.91;65.06
19114;BME280;9689;51.052;13.772;2023-11-22T14:39:07;101529.09;;;0.95;65.39
19114;BME280;9689;51.052;13.772;2023-11-22T14:44:13;101513.53;;;0.91;65.65
19114;BME280;9689;51.052;13.772;2023-11-22T14:49:13;101506.63;;;0.88;67.40
19114;BME280;9689;51.052;13.772;2023-11-22T14:54:14;101503.34;;;0.49;67.90
19114;BME280;9689;51.052;13.772;2023-11-22T14:59:16;101496.38;;;0.45;68.76
19114;BME280;9689;51.052;13.772;2023-11-22T15:04:17;101499.97;;;0.50;68.68
19114;BME280;9689;51.052;13.772;2023-11-22T15:09:19;101507.13;;;0.36;69.47
19114;BME280;9689;51.052;13.772;2023-11-22T15:14:22;101523.19;;;0.53;68.81
19114;BME280;9689;51.052;13.772;2023-11-22T15:19:25;101558.38;;;0.57;69.96
19114;BME280;9689;51.052;13.772;2023-11-22T15:24:27;101570.94;;;0.51;69.59
19114;BME280;9689;51.052;13.772;2023-11-22T15:29:31;101558.03;;;0.27;71.77
19114;BME280;9689;51.052;13.772;2023-11-22T15:34:32;101548.63;;;0.48;72.43
19114;BME280;9689;51.052;13.772;2023-11-22T15:39:33;101557.22;;;0.70;71.92
19114;BME280;9689;51.052;13.772;2023-11-22T15:44:35;101548.88;;;0.34;71.91
19114;BME280;9689;51.052;13.772;2023-11-22T15:49:36;101546.13;;;0.29;73.91
19114;BME280;9689;51.052;13.772;2023-11-22T15:54:37;101546.13;;;0.29;73.11
19114;BME280;9689;51.052;13.772;2023-11-22T15:59:39;101565.22;;;0.36;73.27
19114;BME280;9689;51.052;13.772;2023-11-22T16:04:40;101559.97;;;0.53;73.96
19114;BME280;9689;51.052;13.772;2023-11-22T16:09:41;101550.56;;;0.75;73.18
19114;BME280;9689;51.052;13.772;2023-11-22T16:14:44;101542.31;;;0.40;75.30
19114;BME280;9689;51.052;13.772;2023-11-22T16:19:45;101534.84;;;0.67;74.11
19114;BME280;9689;51.052;13.772;2023-11-22T16:24:46;101559.91;;;0.95;74.15
19114;BME280;9689;51.052;13.772;2023-11-22T16:29:48;101559.31;;;0.80;73.58
19114;BME280;9689;51.052;13.772;2023-11-22T16:34:50;101539.47;;;0.76;74.13
19114;BME280;9689;51.052;13.772;2023-11-22T16:39:51;101561.19;;;0.84;74.08
19114;BME280;9689;51.052;13.772;2023-11-22T16:44:53;101547.13;;;0.74;73.51
19114;BME280;9689;51.052;13.772;2023-11-22T16:49:55;101522.03;;;0.67;73.92
19114;BME280;9689;51.052;13.772;2023-11-22T16:54:55;101517.31;;;0.78;75.23
19114;BME280;9689;51.052;13.772;2023-11-22T16:59:58;101526.75;;;0.56;75.22
19114;BME280;9689;51.052;13.772;2023-11-22T17:04:59;101545.00;;;0.64;75.54
19114;BME280;9689;51.052;13.772;2023-11-22T17:10:00;101557.63;;;0.80;75.23
19114;BME280;9689;51.052;13.772;2023-11-22T17:15:03;101544.97;;;0.85;75.73
19114;BME280;9689;51.052;13.772;2023-11-22T17:20:05;101548.94;;;0.56;76.35
19114;BME280;9689;51.052;13.772;2023-11-22T17:25:07;101540.41;;;0.78;75.76
19114;BME280;9689;51.052;13.772;2023-11-22T17:30:12;101535.81;;;0.92;74.95
19114;BME280;9689;51.052;13.772;2023-11-22T17:35:13;101519.78;;;0.75;75.05
19114;BME280;9689;51.052;13.772;2023-11-22T17:40:15;101515.25;;;0.90;76.57
19114;BME280;9689;51.052;13.772;2023-11-22T17:45:18;101509.34;;;1.15;75.72
19114;BME280;9689;51.052;13.772;2023-11-22T17:50:19;101508.81;;;0.79;76.62
19114;BME280;9689;51.052;13.772;2023-11-22T17:55:19;101503.03;;;0.84;77.82
19114;BME280;9689;51.052;13.772;2023-11-22T18:00:22;101494.19;;;0.99;77.19
19114;BME280;9689;51.052;13.772;2023-11-22T18:05:23;101506.06;;;0.74;77.93
19114;BME280;9689;51.052;13.772;2023-11-22T18:10:26;101496.06;;;0.80;76.96
19114;BME280;9689;51.052;13.772;2023-11-22T18:15:41;101500.81;;;0.94;77.10
19114;BME280;9689;51.052;13.772;2023-11-22T18:20:43;101498.59;;;1.03;76.60
19114;BME280;9689;51.052;13.772;2023-11-22T18:25:44;101502.34;;;1.11;76.54
19114;BME280;9689;51.052;13.772;2023-11-22T18:30:47;101475.75;;;1.09;75.72
19114;BME280;9689;51.052;13.772;2023-11-22T18:35:49;101464.41;;;1.04;76.51
19114;BME280;9689;51.052;13.772;2023-11-22T18:40:52;101455.84;;;1.03;76.56
19114;BME280;9689;51.052;13.772;2023-11-22T18:45:54;101448.09;;;1.02;76.94
19114;BME280;9689;51.052;13.772;2023-11-22T18:51:03;101437.53;;;0.94;77.62
19114;BME280;9689;51.052;13.772;2023-11-22T18:56:04;101408.72;;;1.01;77.96
19114;BME280;9689;51.052;13.772;2023-11-22T19:01:06;101414.38;;;1.15;77.75
19114;BME280;9689;51.052;13.772;2023-11-22T19:06:08;101422.16;;;1.18;77.95
19114;BME280;9689;51.052;13.772;2023-11-22T19:11:09;101430.63;;;1.16;78.34
19114;BME280;9689;51.052;13.772;2023-11-22T19:16:12;101407.16;;;1.05;77.87
19114;BME280;9689;51.052;13.772;2023-11-22T19:21:17;101401.28;;;0.85;79.40
19114;BME280;9689;51.052;13.772;2023-11-22T19:26:21;101408.63;;;0.98;78.99
19114;BME280;9689;51.052;13.772;2023-11-22T19:31:24;101417.34;;;1.03;78.77
19114;BME280;9689;51.052;13.772;2023-11-22T19:36:26;101426.59;;;0.98;78.92
19114;BME280;9689;51.052;13.772;2023-11-22T19:41:28;101397.00;;;1.08;79.52
19114;BME280;9689;51.052;13.772;2023-11-22T19:46:31;101371.16;;;1.03;80.30
19114;BME280;9689;51.052;13.772;2023-11-22T19:51:32;101371.22;;;1.05;79.77
19114;BME280;9689;51.052;13.772;2023-11-22T19:56:33;101400.88;;;0.97;80.50
19114;BME280;9689;51.052;13.772;2023-11-22T20:01:35;101387.59;;;1.08;80.59
19114;BME280;9689;51.052;13.772;2023-11-22T20:06:37;101392.16;;;0.93;80.56
19114;BME280;9689;51.052;13.772;2023-11-22T20:11:39;101376.44;;;0.84;81.31
19114;BME280;9689;51.052;13.772;2023-11-22T20:16:42;101376.06;;;0.97;80.98
19114;BME280;9689;51.052;13.772;2023-11-22T20:21:43;101352.38;;;1.04;80.92
19114;BME280;9689;51.052;13.772;2023-11-22T20:26:44;101334.28;;;1.01;80.89
19114;BME280;9689;51.052;13.772;2023-11-22T20:31:46;101332.81;;;1.08;81.33
19114;BME280;9689;51.052;13.772;2023-11-22T20:36:47;101318.25;;;1.07;81.33
19114;BME280;9689;51.052;13.772;2023-11-22T20:41:49;101297.84;;;1.11;81.19
19114;BME280;9689;51.052;13.772;2023-11-22T20:46:51;101281.63;;;1.12;80.91
19114;BME280;9689;51.052;13.772;2023-11-22T20:51:52;101289.50;;;1.17;81.66
19114;BME280;9689;51.052;13.772;2023-11-22T20:56:53;101287.19;;;1.25;80.81
19114;BME280;9689;51.052;13.772;2023-11-22T21:01:55;101282.06;;;1.25;80.97
19114;BME280;9689;51.052;13.772;2023-11-22T21:06:56;101296.38;;;1.18;80.94
19114;BME280;9689;51.052;13.772;2023-11-22T21:11:57;101288.28;;;1.06;81.23
19114;BME280;9689;51.052;13.772;2023-11-22T21:16:59;101271.34;;;1.12;80.99
19114;BME280;9689;51.052;13.772;2023-11-22T21:22:02;101278.63;;;1.24;81.12
19114;BME280;9689;51.052;13.772;2023-11-22T21:27:03;101270.66;;;1.17;80.93
19114;BME280;9689;51.052;13.772;2023-11-22T21:32:06;101261.31;;;1.19;80.34
19114;BME280;9689;51.052;13.772;2023-11-22T21:37:08;101244.78;;;1.10;81.22
19114;BME280;9689;51.052;13.772;2023-11-22T21:42:08;101247.38;;;1.12;81.30
19114;BME280;9689;51.052;13.772;2023-11-22T21:47:15;101249.81;;;1.33;79.92
19114;BME280;9689;51.052;13.772;2023-11-22T21:52:17;101247.91;;;1.27;79.71
19114;BME280;9689;51.052;13.772;2023-11-22T21:57:18;101235.94;;;1.28;79.62
19114;BME280;9689;51.052;13.772;2023-11-22T22:02:20;101235.59;;;1.17;79.65
19114;BME280;9689;51.052;13.772;2023-11-22T22:07:21;101230.53;;;1.20;79.09
19114;BME280;9689;51.052;13.772;2023-11-22T22:12:22;101219.53;;;1.23;79.51
19114;BME280;9689;51.052;13.772;2023-11-22T22:17:25;101204.44;;;1.33;79.07
19114;BME280;9689;51.052;13.772;2023-11-22T22:22:26;101186.47;;;1.33;78.59
19114;BME280;9689;51.052;13.772;2023-11-22T22:27:27;101176.16;;;1.32;78.72
19114;BME280;9689;51.052;13.772;2023-11-22T22:32:29;101174.16;;;1.50;78.22
19114;BME280;9689;51.052;13.772;2023-11-22T22:37:30;101168.25;;;1.53;77.98
19114;BME280;9689;51.052;13.772;2023-11-22T22:42:31;101163.88;;;1.50;77.69
19114;BME280;9689;51.052;13.772;2023-11-22T22:47:33;101149.38;;;1.52;77.80
19114;BME280;9689;51.052;13.772;2023-11-22T22:52:34;101152.13;;;1.57;77.33
19114;BME280;9689;51.052;13.772;2023-11-22T22:57:36;101144.59;;;1.64;76.92
19114;BME280;9689;51.052;13.772;2023-11-22T23:02:39;101141.03;;;1.59;76.75
19114;BME280;9689;51.052;13.772;2023-11-22T23:07:40;101125.81;;;1.65;76.23
19114;BME280;9689;51.052;13.772;2023-11-22T23:12:40;101135.13;;;1.62;75.05
19114;BME280;9689;51.052;13.772;2023-11-22T23:17:42;101116.31;;;1.63;74.62
19114;BME280;9689;51.052;13.772;2023-11-22T23:22:44;101121.75;;;1.74;73.52
19114;BME280;9689;51.052;13.772;2023-11-22T23:27:46;101129.19;;;1.93;72.59
19114;BME280;9689;51.052;13.772;2023-11-22T23:32:49;101112.72;;;1.86;71.67
19114;BME280;9689;51.052;13.772;2023-11-22T23:37:50;101108.41;;;1.85;73.36
19114;BME280;9689;51.052;13.772;2023-11-22T23:42:52;101117.22;;;1.95;71.29
19114;BME280;9689;51.052;13.772;2023-11-22T23:47:56;101104.97;;;1.85;71.93
19114;BME280;9689;51.052;13.772;2023-11-22T23:52:58;101106.47;;;1.78;72.19
19114;BME280;9689;51.052;13.772;2023-11-22T23:57:58;101098.81;;;1.80;71.52
